sensor_id;sensor_type;location;lat;lon;timestamp;temperature;humidity
11423;DHT22;5768;51.476;7.210;2023-03-14T00:03:18;12.30;17.70
11423;DHT22;5768;51.476;7.210;2023-03-14T00:08:21;12.20;17.80
11423;DHT22;5768;51.476;7.210;2023-03-14T00:13:24;12.20;17.80
11423;DHT22;5768;51.476;7.210;2023-03-14T00:18:29;12.10;17.80
11423;DHT22;5768;51.476;7.210;2023-03-14T00:23:33;12.10;17.80
11423;DHT22;5768;51.476;7.210;2023-03-14T00:28:36;12.00;17.80
11423;DHT22;5768;51.476;7.210;2023-03-14T00:33:40;12.00;17.70
11423;DHT22;5768;51.476;7.210;2023-03-14T00:38:44;12.10;17.60
11423;DHT22;5768;51.476;7.210;2023-03-14T00:43:47;12.20;17.60
11423;DHT22;5768;51.476;7.210;2023-03-14T00:48:51;12.20;17.50
11423;DHT22;5768;51.476;7.210;2023-03-14T00:53:53;12.40;17.40
11423;DHT22;5768;51.476;7.210;2023-03-14T00:58:57;12.40;17.20
11423;DHT22;5768;51.476;7.210;2023-03-14T01:04:02;12.00;21.50
11423;DHT22;5768;51.476;7.210;2023-03-14T01:09:05;9.90;99.90
11423;DHT22;5768;51.476;7.210;2023-03-14T01:14:07;9.40;99.90
11423;DHT22;5768;51.476;7.210;2023-03-14T01:19:11;8.80;99.90
11423;DHT22;5768;51.476;7.210;2023-03-14T01:24:13;8.90;99.90
11423;DHT22;5768;51.476;7.210;2023-03-14T01:29:16;9.20;99.90
11423;DHT22;5768;51.476;7.210;2023-03-14T01:34:20;9.10;99.90
11423;DHT22;5768;51.476;7.210;2023-03-14T01:39:22;9.00;99.90
11423;DHT22;5768;51.476;7.210;2023-03-14T01:44:24;9.50;99.90
11423;DHT22;5768;51.476;7.210;2023-03-14T01:49:29;9.40;99.90
11423;DHT22;5768;51.476;7.210;2023-03-14T01:54:41;9.50;99.90
11423;DHT22;5768;51.476;7.210;2023-03-14T01:59:49;9.30;99.90
11423;DHT22;5768;51.476;7.210;2023-03-14T02:04:59;9.40;99.90
11423;DHT22;5768;51.476;7.210;2023-03-14T02:10:01;9.40;99.90
11423;DHT22;5768;51.476;7.210;2023-03-14T02:15:05;9.50;99.90
11423;DHT22;5768;51.476;7.210;2023-03-14T02:20:25;9.40;99.90
11423;DHT22;5768;51.476;7.210;2023-03-14T02:25:39;9.40;99.90
11423;DHT22;5768;51.476;7.210;2023-03-14T02:30:46;9.60;99.90
11423;DHT22;5768;51.476;7.210;2023-03-14T02:35:52;9.80;99.90
11423;DHT22;5768;51.476;7.210;2023-03-14T02:40:58;9.80;99.90
11423;DHT22;5768;51.476;7.210;2023-03-14T02:46:03;9.80;99.90
11423;DHT22;5768;51.476;7.210;2023-03-14T02:51:07;9.90;99.90
11423;DHT22;5768;51.476;7.210;2023-03-14T02:56:10;10.00;99.90
11423;DHT22;5768;51.476;7.210;2023-03-14T03:01:14;10.10;99.90
11423;DHT22;5768;51.476;7.210;2023-03-14T03:06:16;10.10;99.90
11423;DHT22;5768;51.476;7.210;2023-03-14T03:11:18;10.10;99.90
11423;DHT22;5768;51.476;7.210;2023-03-14T03:16:21;10.10;99.90
11423;DHT22;5768;51.476;7.210;2023-03-14T03:21:24;10.10;99.90
11423;DHT22;5768;51.476;7.210;2023-03-14T03:26:26;10.00;99.90
11423;DHT22;5768;51.476;7.210;2023-03-14T03:31:30;10.10;99.90
11423;DHT22;5768;51.476;7.210;2023-03-14T03:36:32;10.10;99.90
11423;DHT22;5768;51.476;7.210;2023-03-14T03:41:35;10.20;99.90
11423;DHT22;5768;51.476;7.210;2023-03-14T03:46:38;10.20;99.90
11423;DHT22;5768;51.476;7.210;2023-03-14T03:51:40;10.20;98.90
11423;DHT22;5768;51.476;7.210;2023-03-14T03:56:42;10.40;96.00
11423;DHT22;5768;51.476;7.210;2023-03-14T04:01:46;10.50;94.30
11423;DHT22;5768;51.476;7.210;2023-03-14T04:06:48;10.50;97.30
11423;DHT22;5768;51.476;7.210;2023-03-14T04:11:50;10.50;99.90
11423;DHT22;5768;51.476;7.210;2023-03-14T04:16:54;10.40;99.30
11423;DHT22;5768;51.476;7.210;2023-03-14T04:21:56;10.30;99.90
11423;DHT22;5768;51.476;7.210;2023-03-14T04:26:58;10.20;99.90
11423;DHT22;5768;51.476;7.210;2023-03-14T04:32:02;10.20;99.90
11423;DHT22;5768;51.476;7.210;2023-03-14T04:37:04;9.90;99.90
11423;DHT22;5768;51.476;7.210;2023-03-14T04:42:09;9.80;99.90
11423;DHT22;5768;51.476;7.210;2023-03-14T04:47:12;9.40;99.90
11423;DHT22;5768;51.476;7.210;2023-03-14T04:52:15;9.00;99.90
11423;DHT22;5768;51.476;7.210;2023-03-14T04:57:17;9.10;99.90
11423;DHT22;5768;51.476;7.210;2023-03-14T05:02:20;8.80;99.90
11423;DHT22;5768;51.476;7.210;2023-03-14T05:07:23;8.80;99.90
11423;DHT22;5768;51.476;7.210;2023-03-14T05:12:25;8.80;99.90
11423;DHT22;5768;51.476;7.210;2023-03-14T05:17:28;8.70;99.90
11423;DHT22;5768;51.476;7.210;2023-03-14T05:22:30;8.70;99.90
11423;DHT22;5768;51.476;7.210;2023-03-14T05:27:33;8.80;99.90
11423;DHT22;5768;51.476;7.210;2023-03-14T05:32:36;8.90;99.90
11423;DHT22;5768;51.476;7.210;2023-03-14T05:37:38;9.10;99.90
11423;DHT22;5768;51.476;7.210;2023-03-14T05:42:40;9.20;99.90
11423;DHT22;5768;51.476;7.210;2023-03-14T05:47:44;9.20;99.90
11423;DHT22;5768;51.476;7.210;2023-03-14T05:52:46;9.20;99.90
11423;DHT22;5768;51.476;7.210;2023-03-14T05:57:48;9.20;99.90
11423;DHT22;5768;51.476;7.210;2023-03-14T06:02:52;9.30;99.90
11423;DHT22;5768;51.476;7.210;2023-03-14T06:07:54;9.60;99.90
11423;DHT22;5768;51.476;7.210;2023-03-14T06:12:57;9.80;99.90
11423;DHT22;5768;51.476;7.210;2023-03-14T06:18:00;9.70;99.90
11423;DHT22;5768;51.476;7.210;2023-03-14T06:23:02;9.90;99.90
11423;DHT22;5768;51.476;7.210;2023-03-14T06:28:04;9.90;99.90
11423;DHT22;5768;51.476;7.210;2023-03-14T06:33:16;9.90;99.90
11423;DHT22;5768;51.476;7.210;2023-03-14T06:38:18;10.00;99.90
11423;DHT22;5768;51.476;7.210;2023-03-14T06:43:23;10.00;99.90
11423;DHT22;5768;51.476;7.210;2023-03-14T06:48:27;10.10;99.90
11423;DHT22;5768;51.476;7.210;2023-03-14T06:53:29;10.10;99.90
11423;DHT22;5768;51.476;7.210;2023-03-14T06:58:34;10.10;99.90
11423;DHT22;5768;51.476;7.210;2023-03-14T07:03:37;10.40;99.90
11423;DHT22;5768;51.476;7.210;2023-03-14T07:08:39;10.40;99.90
11423;DHT22;5768;51.476;7.210;2023-03-14T07:13:42;10.30;99.90
11423;DHT22;5768;51.476;7.210;2023-03-14T07:18:45;10.50;99.90
11423;DHT22;5768;51.476;7.210;2023-03-14T07:23:49;10.60;99.90
11423;DHT22;5768;51.476;7.210;2023-03-14T07:28:51;10.60;99.90
11423;DHT22;5768;51.476;7.210;2023-03-14T07:33:55;10.60;99.90
11423;DHT22;5768;51.476;7.210;2023-03-14T07:38:57;10.80;99.90
11423;DHT22;5768;51.476;7.210;2023-03-14T07:43:59;10.70;99.90
11423;DHT22;5768;51.476;7.210;2023-03-14T07:49:04;10.90;99.90
11423;DHT22;5768;51.476;7.210;2023-03-14T07:54:06;11.00;99.90
11423;DHT22;5768;51.476;7.210;2023-03-14T07:59:08;11.10;99.90
11423;DHT22;5768;51.476;7.210;2023-03-14T08:04:12;10.90;99.90
11423;DHT22;5768;51.476;7.210;2023-03-14T08:09:15;10.90;99.90
11423;DHT22;5768;51.476;7.210;2023-03-14T08:14:17;10.90;99.90
11423;DHT22;5768;51.476;7.210;2023-03-14T08:19:20;10.90;99.90
11423;DHT22;5768;51.476;7.210;2023-03-14T08:24:22;11.10;99.90
11423;DHT22;5768;51.476;7.210;2023-03-14T08:29:24;11.10;99.90
11423;DHT22;5768;51.476;7.210;2023-03-14T08:34:28;11.10;99.90
11423;DHT22;5768;51.476;7.210;2023-03-14T08:39:30;10.30;99.90
11423;DHT22;5768;51.476;7.210;2023-03-14T08:44:32;10.60;99.90
11423;DHT22;5768;51.476;7.210;2023-03-14T08:49:40;10.80;99.90
11423;DHT22;5768;51.476;7.210;2023-03-14T08:54:48;11.20;99.90
11423;DHT22;5768;51.476;7.210;2023-03-14T08:59:50;11.50;99.90
11423;DHT22;5768;51.476;7.210;2023-03-14T09:04:53;11.40;99.90
11423;DHT22;5768;51.476;7.210;2023-03-14T09:09:55;11.10;99.90
11423;DHT22;5768;51.476;7.210;2023-03-14T09:14:57;10.80;99.90
11423;DHT22;5768;51.476;7.210;2023-03-14T09:20:05;11.00;99.90
11423;DHT22;5768;51.476;7.210;2023-03-14T09:25:10;10.70;99.90
11423;DHT22;5768;51.476;7.210;2023-03-14T09:30:13;10.60;99.90
11423;DHT22;5768;51.476;7.210;2023-03-14T09:35:16;10.70;99.90
11423;DHT22;5768;51.476;7.210;2023-03-14T09:40:20;10.20;99.90
11423;DHT22;5768;51.476;7.210;2023-03-14T09:45:27;9.30;99.90
11423;DHT22;5768;51.476;7.210;2023-03-14T09:50:37;9.10;99.90
11423;DHT22;5768;51.476;7.210;2023-03-14T09:55:42;8.50;99.90
11423;DHT22;5768;51.476;7.210;2023-03-14T10:00:46;8.60;99.90
11423;DHT22;5768;51.476;7.210;2023-03-14T10:05:52;8.40;99.90
11423;DHT22;5768;51.476;7.210;2023-03-14T10:10:56;8.50;99.90
11423;DHT22;5768;51.476;7.210;2023-03-14T10:16:01;8.50;99.90
11423;DHT22;5768;51.476;7.210;2023-03-14T10:21:21;8.50;99.90
11423;DHT22;5768;51.476;7.210;2023-03-14T10:26:28;8.80;99.90
11423;DHT22;5768;51.476;7.210;2023-03-14T10:31:47;8.60;99.90
11423;DHT22;5768;51.476;7.210;2023-03-14T10:36:54;8.60;99.90
11423;DHT22;5768;51.476;7.210;2023-03-14T10:42:05;8.50;99.90
11423;DHT22;5768;51.476;7.210;2023-03-14T10:47:18;8.40;99.90
11423;DHT22;5768;51.476;7.210;2023-03-14T10:52:26;8.40;99.90
11423;DHT22;5768;51.476;7.210;2023-03-14T10:57:29;8.10;99.90
11423;DHT22;5768;51.476;7.210;2023-03-14T11:02:41;7.90;99.90
11423;DHT22;5768;51.476;7.210;2023-03-14T11:07:54;7.70;93.80
11423;DHT22;5768;51.476;7.210;2023-03-14T11:13:16;7.70;91.00
11423;DHT22;5768;51.476;7.210;2023-03-14T11:18:51;7.70;86.90
11423;DHT22;5768;51.476;7.210;2023-03-14T11:24:15;8.10;29.00
11423;DHT22;5768;51.476;7.210;2023-03-14T11:29:33;8.40;23.90
11423;DHT22;5768;51.476;7.210;2023-03-14T11:34:45;8.10;20.90
11423;DHT22;5768;51.476;7.210;2023-03-14T11:39:59;8.50;21.10
11423;DHT22;5768;51.476;7.210;2023-03-14T11:45:16;8.90;19.80
11423;DHT22;5768;51.476;7.210;2023-03-14T11:50:24;8.90;19.30
11423;DHT22;5768;51.476;7.210;2023-03-14T11:55:33;8.40;18.60
11423;DHT22;5768;51.476;7.210;2023-03-14T12:00:38;8.50;18.50
11423;DHT22;5768;51.476;7.210;2023-03-14T12:05:55;8.50;18.50
11423;DHT22;5768;51.476;7.210;2023-03-14T12:11:10;8.10;19.40
11423;DHT22;5768;51.476;7.210;2023-03-14T12:16:33;7.90;20.00
11423;DHT22;5768;51.476;7.210;2023-03-14T12:21:51;8.20;20.30
11423;DHT22;5768;51.476;7.210;2023-03-14T12:27:04;8.60;20.00
11423;DHT22;5768;51.476;7.210;2023-03-14T12:32:22;9.50;19.70
11423;DHT22;5768;51.476;7.210;2023-03-14T12:37:35;9.70;18.80
11423;DHT22;5768;51.476;7.210;2023-03-14T12:42:51;9.80;17.90
11423;DHT22;5768;51.476;7.210;2023-03-14T12:48:09;10.30;17.70
11423;DHT22;5768;51.476;7.210;2023-03-14T12:59:31;10.20;17.30
11423;DHT22;5768;51.476;7.210;2023-03-14T13:04:44;9.30;17.70
11423;DHT22;5768;51.476;7.210;2023-03-14T13:09:54;8.20;19.60
11423;DHT22;5768;51.476;7.210;2023-03-14T13:15:13;7.70;24.50
11423;DHT22;5768;51.476;7.210;2023-03-14T13:20:24;7.30;25.10
11423;DHT22;5768;51.476;7.210;2023-03-14T13:25:33;7.80;22.90
11423;DHT22;5768;51.476;7.210;2023-03-14T13:30:40;7.80;21.20
11423;DHT22;5768;51.476;7.210;2023-03-14T13:35:45;8.60;20.70
11423;DHT22;5768;51.476;7.210;2023-03-14T13:40:49;8.10;20.00
11423;DHT22;5768;51.476;7.210;2023-03-14T13:45:56;7.60;22.90
11423;DHT22;5768;51.476;7.210;2023-03-14T13:51:06;7.80;23.60
11423;DHT22;5768;51.476;7.210;2023-03-14T13:56:12;7.90;21.20
11423;DHT22;5768;51.476;7.210;2023-03-14T14:01:18;8.60;21.70
11423;DHT22;5768;51.476;7.210;2023-03-14T14:06:27;11.10;17.90
11423;DHT22;5768;51.476;7.210;2023-03-14T14:11:49;14.30;15.50
11423;DHT22;5768;51.476;7.210;2023-03-14T14:16:58;13.30;14.20
11423;DHT22;5768;51.476;7.210;2023-03-14T14:22:02;12.20;15.00
11423;DHT22;5768;51.476;7.210;2023-03-14T14:27:11;11.50;15.70
11423;DHT22;5768;51.476;7.210;2023-03-14T14:32:20;10.90;14.90
11423;DHT22;5768;51.476;7.210;2023-03-14T14:37:24;10.70;14.40
11423;DHT22;5768;51.476;7.210;2023-03-14T14:42:30;11.80;13.70
11423;DHT22;5768;51.476;7.210;2023-03-14T14:47:49;12.40;12.60
11423;DHT22;5768;51.476;7.210;2023-03-14T14:52:56;12.50;11.50
11423;DHT22;5768;51.476;7.210;2023-03-14T14:58:16;14.00;11.30
11423;DHT22;5768;51.476;7.210;2023-03-14T15:03:26;16.80;10.60
11423;DHT22;5768;51.476;7.210;2023-03-14T15:08:31;17.60;9.30
11423;DHT22;5768;51.476;7.210;2023-03-14T15:13:33;17.50;9.20
11423;DHT22;5768;51.476;7.210;2023-03-14T15:18:37;17.10;9.20
11423;DHT22;5768;51.476;7.210;2023-03-14T15:23:42;15.10;9.40
11423;DHT22;5768;51.476;7.210;2023-03-14T15:28:44;13.00;10.10
11423;DHT22;5768;51.476;7.210;2023-03-14T15:33:49;13.20;10.20
11423;DHT22;5768;51.476;7.210;2023-03-14T15:38:52;13.50;9.70
11423;DHT22;5768;51.476;7.210;2023-03-14T15:44:03;11.60;9.60
11423;DHT22;5768;51.476;7.210;2023-03-14T15:49:08;10.80;9.70
11423;DHT22;5768;51.476;7.210;2023-03-14T15:54:10;10.60;9.80
11423;DHT22;5768;51.476;7.210;2023-03-14T15:59:12;10.40;9.90
11423;DHT22;5768;51.476;7.210;2023-03-14T16:04:16;9.50;10.00
11423;DHT22;5768;51.476;7.210;2023-03-14T16:09:19;9.60;10.00
11423;DHT22;5768;51.476;7.210;2023-03-14T16:14:26;9.40;9.70
11423;DHT22;5768;51.476;7.210;2023-03-14T16:19:34;9.60;9.90
11423;DHT22;5768;51.476;7.210;2023-03-14T16:24:40;9.30;9.80
11423;DHT22;5768;51.476;7.210;2023-03-14T16:29:43;9.30;9.70
11423;DHT22;5768;51.476;7.210;2023-03-14T16:34:48;8.80;9.70
11423;DHT22;5768;51.476;7.210;2023-03-14T16:39:51;9.20;9.60
11423;DHT22;5768;51.476;7.210;2023-03-14T16:44:54;9.00;9.60
11423;DHT22;5768;51.476;7.210;2023-03-14T16:49:58;8.80;9.60
11423;DHT22;5768;51.476;7.210;2023-03-14T16:55:03;8.80;9.70
11423;DHT22;5768;51.476;7.210;2023-03-14T17:00:08;8.60;9.60
11423;DHT22;5768;51.476;7.210;2023-03-14T17:05:13;8.20;9.60
11423;DHT22;5768;51.476;7.210;2023-03-14T17:10:15;7.80;9.70
11423;DHT22;5768;51.476;7.210;2023-03-14T17:15:18;7.60;9.90
11423;DHT22;5768;51.476;7.210;2023-03-14T17:20:21;7.60;10.00
11423;DHT22;5768;51.476;7.210;2023-03-14T17:25:26;7.50;10.20
11423;DHT22;5768;51.476;7.210;2023-03-14T17:30:28;7.20;10.30
11423;DHT22;5768;51.476;7.210;2023-03-14T17:35:32;7.20;10.40
11423;DHT22;5768;51.476;7.210;2023-03-14T17:40:35;7.10;10.40
11423;DHT22;5768;51.476;7.210;2023-03-14T17:45:37;7.10;10.50
11423;DHT22;5768;51.476;7.210;2023-03-14T17:50:40;6.90;10.50
11423;DHT22;5768;51.476;7.210;2023-03-14T17:55:46;6.90;10.50
11423;DHT22;5768;51.476;7.210;2023-03-14T18:00:48;7.10;10.60
11423;DHT22;5768;51.476;7.210;2023-03-14T18:05:55;7.00;10.70
11423;DHT22;5768;51.476;7.210;2023-03-14T18:10:57;7.00;10.80
11423;DHT22;5768;51.476;7.210;2023-03-14T18:16:03;6.80;10.70
11423;DHT22;5768;51.476;7.210;2023-03-14T18:21:10;6.60;10.80
11423;DHT22;5768;51.476;7.210;2023-03-14T18:26:31;6.70;10.90
11423;DHT22;5768;51.476;7.210;2023-03-14T18:31:34;6.70;11.00
11423;DHT22;5768;51.476;7.210;2023-03-14T18:36:37;6.70;11.00
11423;DHT22;5768;51.476;7.210;2023-03-14T18:41:40;6.60;11.20
11423;DHT22;5768;51.476;7.210;2023-03-14T18:46:42;6.60;11.30
11423;DHT22;5768;51.476;7.210;2023-03-14T18:51:46;6.70;11.40
11423;DHT22;5768;51.476;7.210;2023-03-14T18:56:48;6.50;11.30
11423;DHT22;5768;51.476;7.210;2023-03-14T19:01:51;6.60;11.40
11423;DHT22;5768;51.476;7.210;2023-03-14T19:06:57;6.50;11.30
11423;DHT22;5768;51.476;7.210;2023-03-14T19:11:59;6.40;11.40
11423;DHT22;5768;51.476;7.210;2023-03-14T19:17:01;6.40;11.30
11423;DHT22;5768;51.476;7.210;2023-03-14T19:22:06;6.30;11.40
11423;DHT22;5768;51.476;7.210;2023-03-14T19:27:08;6.30;11.40
11423;DHT22;5768;51.476;7.210;2023-03-14T19:32:10;6.20;11.60
11423;DHT22;5768;51.476;7.210;2023-03-14T19:37:16;6.10;11.70
11423;DHT22;5768;51.476;7.210;2023-03-14T19:42:18;6.10;11.70
11423;DHT22;5768;51.476;7.210;2023-03-14T19:47:20;6.20;11.90
11423;DHT22;5768;51.476;7.210;2023-03-14T19:52:24;6.00;11.90
11423;DHT22;5768;51.476;7.210;2023-03-14T19:57:26;6.00;11.90
11423;DHT22;5768;51.476;7.210;2023-03-14T20:02:28;5.70;11.90
11423;DHT22;5768;51.476;7.210;2023-03-14T20:07:32;5.80;12.00
11423;DHT22;5768;51.476;7.210;2023-03-14T20:12:34;5.80;12.00
11423;DHT22;5768;51.476;7.210;2023-03-14T20:17:36;5.80;12.10
11423;DHT22;5768;51.476;7.210;2023-03-14T20:22:40;5.80;12.20
11423;DHT22;5768;51.476;7.210;2023-03-14T20:27:43;5.70;12.40
11423;DHT22;5768;51.476;7.210;2023-03-14T20:32:47;5.80;12.40
11423;DHT22;5768;51.476;7.210;2023-03-14T20:37:52;5.60;12.60
11423;DHT22;5768;51.476;7.210;2023-03-14T20:42:55;5.50;12.80
11423;DHT22;5768;51.476;7.210;2023-03-14T20:47:57;5.40;12.80
11423;DHT22;5768;51.476;7.210;2023-03-14T20:53:01;5.30;13.10
11423;DHT22;5768;51.476;7.210;2023-03-14T20:58:03;5.20;13.00
11423;DHT22;5768;51.476;7.210;2023-03-14T21:03:06;5.10;13.00
11423;DHT22;5768;51.476;7.210;2023-03-14T21:08:11;5.10;13.00
11423;DHT22;5768;51.476;7.210;2023-03-14T21:13:14;5.10;13.10
11423;DHT22;5768;51.476;7.210;2023-03-14T21:18:16;5.10;13.20
11423;DHT22;5768;51.476;7.210;2023-03-14T21:23:22;5.10;13.30
11423;DHT22;5768;51.476;7.210;2023-03-14T21:28:26;5.00;13.40
11423;DHT22;5768;51.476;7.210;2023-03-14T21:33:29;5.20;13.50
11423;DHT22;5768;51.476;7.210;2023-03-14T21:38:33;5.20;13.50
11423;DHT22;5768;51.476;7.210;2023-03-14T21:43:35;5.20;13.50
11423;DHT22;5768;51.476;7.210;2023-03-14T21:48:37;5.20;13.40
11423;DHT22;5768;51.476;7.210;2023-03-14T21:53:41;5.10;13.50
11423;DHT22;5768;51.476;7.210;2023-03-14T21:58:48;5.00;13.50
11423;DHT22;5768;51.476;7.210;2023-03-14T22:03:52;4.90;13.70
11423;DHT22;5768;51.476;7.210;2023-03-14T22:08:56;4.90;13.90
11423;DHT22;5768;51.476;7.210;2023-03-14T22:13:58;4.80;13.90
11423;DHT22;5768;51.476;7.210;2023-03-14T22:19:00;4.60;14.10
11423;DHT22;5768;51.476;7.210;2023-03-14T22:24:06;4.50;14.20
11423;DHT22;5768;51.476;7.210;2023-03-14T22:29:09;4.60;14.30
11423;DHT22;5768;51.476;7.210;2023-03-14T22:34:12;4.70;14.40
11423;DHT22;5768;51.476;7.210;2023-03-14T22:39:16;4.70;14.20
11423;DHT22;5768;51.476;7.210;2023-03-14T22:44:21;4.80;14.30
11423;DHT22;5768;51.476;7.210;2023-03-14T22:49:24;4.90;14.30
11423;DHT22;5768;51.476;7.210;2023-03-14T22:54:28;5.10;14.20
11423;DHT22;5768;51.476;7.210;2023-03-14T22:59:34;5.00;14.10
11423;DHT22;5768;51.476;7.210;2023-03-14T23:04:37;5.20;14.10
11423;DHT22;5768;51.476;7.210;2023-03-14T23:09:50;5.30;14.10
11423;DHT22;5768;51.476;7.210;2023-03-14T23:15:04;5.10;14.00
11423;DHT22;5768;51.476;7.210;2023-03-14T23:20:09;4.90;14.10
11423;DHT22;5768;51.476;7.210;2023-03-14T23:25:14;5.00;14.00
11423;DHT22;5768;51.476;7.210;2023-03-14T23:30:20;4.90;14.00
11423;DHT22;5768;51.476;7.210;2023-03-14T23:35:22;5.10;14.00
11423;DHT22;5768;51.476;7.210;2023-03-14T23:40:26;5.10;13.90
11423;DHT22;5768;51.476;7.210;2023-03-14T23:45:29;5.30;14.00
11423;DHT22;5768;51.476;7.210;2023-03-14T23:50:33;5.20;14.00
11423;DHT22;5768;51.476;7.210;2023-03-14T23:55:38;5.30;14.00
